Windyville, Missouri
Current Conditions -  °F | °C
As of 7:35 AM on Friday 31 Oct 2014 (Local Time) from KH21 Reporting Station
Overcast Overcast  
Wind Chill: 36°   Ceiling: 2300
Heat Index: 45°   Visibility: 10mi
Dew Point: 36°   Wind: 21mph
Humidity: 71%   Direction: 320°NW
Pressure: 30.27"   Gusts: 28mph
Location:  37.71°N, 92.93°W
Report Text: KH21 311235Z AUTO 32018G24KT 10SM OVC023 07/02 A3027 RMK AO2
Loading
Personal Weather Stations






























Interactive Weather Map
Tropical Storm Tracking
New forecast layout! Learn more

10-Day Weather Forecast

Advertisements
Track Severe Weather on mobile